Time;durP1;ratioP1;P1;durP2;ratioP2;P2;SDS_P1;SDS_P2;PMS_P1;PMS_P2;Temp;Humidity;BMP_temperature;BMP_pressure;BME280_temperature;BME280_humidity;BME280_pressure;Samples;Min_cycle;Max_cycle;Signal;HPM_P1;HPM_P2
2023/10/03 00:02:05;;;;;;;4.93;4.15;;;17.10;99.90;;;;;;5053116;28;20041;-64
2023/10/03 00:04:31;;;;;;;5.85;5.20;;;17.10;99.90;;;;;;5053002;28;20412;-64
2023/10/03 00:06:57;;;;;;;6.15;5.13;;;17.10;99.90;;;;;;5035266;28;20040;-64
2023/10/03 00:09:23;;;;;;;5.72;4.63;;;17.10;99.90;;;;;;5052998;28;20041;-64
2023/10/03 00:11:49;;;;;;;4.80;4.28;;;17.00;99.90;;;;;;5053087;28;20395;-65
2023/10/03 00:14:15;;;;;;;4.32;3.92;;;17.00;99.90;;;;;;5052991;28;20045;-65
2023/10/03 00:16:41;;;;;;;5.68;4.32;;;17.00;99.90;;;;;;5052615;28;20056;-65
2023/10/03 00:19:07;;;;;;;4.97;4.43;;;17.20;99.90;;;;;;5052549;28;20041;-65
2023/10/03 00:21:33;;;;;;;5.95;4.57;;;17.00;99.90;;;;;;5035042;28;20091;-65
2023/10/03 00:24:01;;;;;;;6.05;4.95;;;16.90;99.90;;;;;;5052485;28;20041;-65
2023/10/03 00:26:28;;;;;;;5.18;4.57;;;16.90;99.90;;;;;;5052908;28;20591;-66
2023/10/03 00:28:56;;;;;;;4.53;4.10;;;16.80;99.90;;;;;;5034870;28;20037;-65
2023/10/03 00:31:22;;;;;;;4.43;4.00;;;17.10;99.90;;;;;;5034973;28;20037;-65
2023/10/03 00:33:48;;;;;;;5.28;4.78;;;16.90;99.90;;;;;;5052526;28;20065;-65
2023/10/03 00:36:16;;;;;;;5.57;4.97;;;16.80;99.90;;;;;;5052804;28;20404;-65
2023/10/03 00:38:41;;;;;;;4.95;4.45;;;16.80;99.90;;;;;;5052460;28;20053;-65
2023/10/03 00:41:08;;;;;;;4.97;4.35;;;16.80;99.90;;;;;;5052526;28;20500;-65
2023/10/03 00:43:34;;;;;;;5.10;4.45;;;16.90;99.90;;;;;;5052643;28;20119;-65
2023/10/03 00:46:00;;;;;;;5.80;5.10;;;16.80;99.90;;;;;;5035760;28;20047;-65
2023/10/03 00:48:27;;;;;;;5.63;5.10;;;16.80;99.90;;;;;;5056292;28;20041;-65
2023/10/03 00:50:55;;;;;;;5.43;4.53;;;16.80;99.90;;;;;;5056639;28;20045;-65
2023/10/03 00:53:21;;;;;;;5.47;4.97;;;16.80;99.90;;;;;;5056548;28;20044;-65
2023/10/03 00:55:47;;;;;;;5.03;4.53;;;16.70;99.90;;;;;;5056600;28;20040;-65
2023/10/03 01:00:41;;;;;;;4.40;4.00;;;16.80;99.90;;;;;;5038788;28;20087;-65
2023/10/03 01:03:31;;;;;;;5.28;4.55;;;17.30;99.90;;;;;;5038492;28;20389;-65
2023/10/03 01:05:58;;;;;;;4.90;4.40;;;16.80;99.90;;;;;;5038292;28;20449;-65
2023/10/03 01:08:24;;;;;;;5.82;4.85;;;16.80;99.90;;;;;;5056309;28;20084;-65
2023/10/03 01:10:55;;;;;;;6.00;5.40;;;16.70;99.90;;;;;;5056236;28;20033;-65
2023/10/03 01:13:21;;;;;;;4.47;4.07;;;16.80;99.90;;;;;;5055896;28;20488;-65
2023/10/03 01:15:52;;;;;;;4.93;4.43;;;16.80;99.90;;;;;;5038027;28;20052;-66
2023/10/03 01:18:20;;;;;;;5.75;5.18;;;17.00;99.90;;;;;;5056106;28;20045;-65
2023/10/03 01:20:50;;;;;;;5.32;4.82;;;16.80;99.90;;;;;;5056184;28;20405;-64
2023/10/03 01:23:16;;;;;;;5.32;4.80;;;16.90;99.90;;;;;;5056022;28;20107;-64
2023/10/03 01:25:43;;;;;;;4.63;4.22;;;16.90;99.90;;;;;;5055792;28;20041;-64
2023/10/03 01:28:13;;;;;;;5.20;4.70;;;16.90;99.90;;;;;;5055890;28;20400;-64
2023/10/03 01:30:43;;;;;;;5.80;5.30;;;16.90;99.90;;;;;;5055639;28;20033;-64
2023/10/03 01:33:11;;;;;;;5.95;4.50;;;17.00;99.90;;;;;;5037445;28;20044;-64
2023/10/03 01:35:37;;;;;;;4.93;4.43;;;17.00;99.90;;;;;;5055410;28;20045;-64
2023/10/03 01:38:05;;;;;;;5.13;4.45;;;17.00;99.90;;;;;;5055452;28;20496;-64
2023/10/03 01:40:30;;;;;;;5.47;4.97;;;17.00;99.90;;;;;;5037433;28;20048;-64
2023/10/03 01:42:57;;;;;;;5.13;4.63;;;17.00;99.90;;;;;;5055644;28;20036;-64
2023/10/03 01:45:24;;;;;;;5.13;4.07;;;17.50;99.90;;;;;;5055187;28;20041;-64
2023/10/03 01:47:51;;;;;;;5.38;4.88;;;17.10;99.90;;;;;;5055196;28;20032;-64
2023/10/03 01:50:21;;;;;;;4.70;4.25;;;17.00;99.90;;;;;;5055503;28;20114;-64
2023/10/03 01:52:48;;;;;;;4.57;4.17;;;17.00;99.90;;;;;;5055568;28;20079;-64
2023/10/03 01:55:17;;;;;;;5.70;5.10;;;17.20;99.90;;;;;;5055349;28;20122;-64
2023/10/03 01:57:43;;;;;;;5.18;4.65;;;17.10;99.90;;;;;;5020287;28;20481;-64
2023/10/03 02:00:21;;;;;;;4.57;4.13;;;17.10;99.90;;;;;;5055344;28;20043;-64
2023/10/03 02:02:50;;;;;;;5.43;4.93;;;17.00;99.90;;;;;;5055250;28;20090;-64
2023/10/03 02:05:20;;;;;;;4.80;4.32;;;17.10;99.90;;;;;;5054992;28;20045;-64
2023/10/03 02:07:45;;;;;;;4.80;4.40;;;17.20;99.90;;;;;;5054961;28;20044;-64
2023/10/03 02:10:14;;;;;;;5.85;4.63;;;17.10;99.90;;;;;;5055087;28;20033;-63
2023/10/03 02:12:48;;;;;;;5.47;4.50;;;17.10;99.90;;;;;;5054712;28;20048;-64
2023/10/03 02:15:26;;;;;;;5.38;4.72;;;17.10;99.90;;;;;;5054735;28;20087;-64
2023/10/03 02:17:53;;;;;;;5.55;4.68;;;17.10;99.90;;;;;;5054926;28;20123;-64
2023/10/03 02:20:20;;;;;;;6.00;4.75;;;17.10;99.90;;;;;;5054617;28;20088;-64
2023/10/03 02:22:55;;;;;;;5.32;4.82;;;17.10;99.90;;;;;;5054948;28;20454;-64
2023/10/03 02:25:28;;;;;;;5.68;5.15;;;17.10;99.90;;;;;;5054402;28;20052;-64
2023/10/03 02:27:56;;;;;;;5.03;4.53;;;17.10;99.90;;;;;;5037013;28;20501;-64
2023/10/03 02:30:23;;;;;;;5.72;4.80;;;17.00;99.90;;;;;;5054699;28;20400;-64
2023/10/03 02:32:57;;;;;;;4.72;4.32;;;17.10;99.90;;;;;;5054763;28;20040;-65
2023/10/03 02:35:26;;;;;;;5.63;5.00;;;17.10;99.90;;;;;;5054565;28;20049;-65
2023/10/03 02:37:56;;;;;;;5.78;5.18;;;17.10;99.90;;;;;;5054567;28;20084;-65
2023/10/03 02:40:23;;;;;;;5.97;5.38;;;17.10;99.90;;;;;;5054290;28;20044;-65
2023/10/03 02:42:50;;;;;;;5.25;4.72;;;17.00;99.90;;;;;;5036616;28;20119;-65
2023/10/03 02:45:17;;;;;;;4.70;4.30;;;17.00;99.90;;;;;;5036265;28;20124;-65
2023/10/03 02:47:43;;;;;;;5.10;4.60;;;17.00;99.90;;;;;;5054387;28;20087;-65
2023/10/03 02:50:12;;;;;;;5.38;4.88;;;17.00;99.90;;;;;;5054383;28;20061;-65
2023/10/03 02:52:39;;;;;;;5.00;4.57;;;17.10;99.90;;;;;;5054282;28;20045;-65
2023/10/03 02:55:08;;;;;;;5.18;4.68;;;17.10;99.90;;;;;;5054309;28;20400;-65
2023/10/03 02:57:35;;;;;;;4.90;4.38;;;17.10;99.90;;;;;;5036046;28;20056;-65
2023/10/03 03:00:05;;;;;;;5.57;4.30;;;17.10;99.90;;;;;;5054203;28;20124;-65
2023/10/03 03:02:31;;;;;;;4.65;4.15;;;17.20;99.90;;;;;;5054216;28;20124;-65
2023/10/03 03:04:58;;;;;;;5.65;4.90;;;17.20;99.90;;;;;;5035942;28;20552;-65
2023/10/03 03:07:26;;;;;;;7.82;4.60;;;17.20;99.90;;;;;;5036246;28;20040;-65
2023/10/03 03:09:56;;;;;;;4.15;3.75;;;17.30;99.90;;;;;;5034904;28;20044;-65
2023/10/03 03:12:22;;;;;;;5.55;4.40;;;17.70;99.90;;;;;;5053862;28;20036;-65
2023/10/03 03:14:48;;;;;;;5.72;4.88;;;17.50;99.90;;;;;;5053917;28;20447;-65
2023/10/03 03:17:14;;;;;;;5.20;4.60;;;17.30;99.90;;;;;;5019322;28;20051;-65
2023/10/03 03:19:40;;;;;;;5.63;4.57;;;17.30;99.90;;;;;;5053468;28;20500;-65
2023/10/03 03:22:06;;;;;;;5.22;4.72;;;17.40;99.90;;;;;;5053739;28;20074;-65
2023/10/03 03:24:34;;;;;;;5.43;4.93;;;17.40;99.90;;;;;;5053641;28;20075;-65
2023/10/03 03:27:00;;;;;;;4.97;4.43;;;17.40;99.90;;;;;;5035523;28;20378;-65
2023/10/03 03:29:35;;;;;;;5.68;4.88;;;17.40;99.90;;;;;;5035688;28;20086;-65
2023/10/03 03:32:01;;;;;;;5.25;4.50;;;17.40;99.90;;;;;;5035394;28;20041;-65
2023/10/03 03:34:28;;;;;;;4.68;4.15;;;17.50;99.90;;;;;;5053162;28;20053;-65
2023/10/03 03:37:14;;;;;;;4.78;4.25;;;17.60;99.90;;;;;;5053488;28;20044;-65
2023/10/03 03:39:52;;;;;;;4.72;3.85;;;17.60;99.90;;;;;;5053402;28;20102;-65
2023/10/03 03:42:18;;;;;;;4.10;3.75;;;17.60;99.90;;;;;;5053434;28;20053;-65
2023/10/03 03:44:43;;;;;;;4.72;4.25;;;17.70;99.90;;;;;;5053274;28;20044;-64
2023/10/03 03:47:11;;;;;;;4.60;4.20;;;17.80;99.90;;;;;;5035320;28;20048;-63
2023/10/03 03:49:37;;;;;;;5.10;4.38;;;17.80;99.90;;;;;;5053185;28;20040;-64
2023/10/03 03:52:03;;;;;;;4.63;3.97;;;17.80;99.90;;;;;;5053412;28;20043;-64
2023/10/03 03:54:29;;;;;;;5.50;4.82;;;17.80;99.90;;;;;;5052981;28;20070;-64
2023/10/03 03:56:55;;;;;;;4.90;4.20;;;17.90;99.90;;;;;;5035401;28;20401;-64
2023/10/03 03:59:22;;;;;;;5.30;4.43;;;18.00;99.90;;;;;;5035298;28;20041;-64
2023/10/03 04:01:49;;;;;;;4.38;3.78;;;18.00;99.90;;;;;;5052783;28;20049;-64
2023/10/03 04:04:16;;;;;;;4.43;4.00;;;17.90;99.90;;;;;;5053029;28;20045;-64
2023/10/03 04:06:42;;;;;;;5.50;4.65;;;18.30;99.90;;;;;;5053047;28;20375;-64
2023/10/03 04:09:08;;;;;;;4.72;4.32;;;17.90;99.90;;;;;;5052744;28;20041;-64
2023/10/03 04:11:34;;;;;;;4.72;4.22;;;17.80;99.90;;;;;;5053037;28;20033;-64
2023/10/03 04:14:04;;;;;;;4.85;4.35;;;17.90;99.90;;;;;;5052972;28;20113;-64
2023/10/03 04:16:38;;;;;;;4.40;4.00;;;17.90;99.90;;;;;;5052952;28;20041;-64
2023/10/03 04:19:05;;;;;;;5.25;4.75;;;17.80;99.90;;;;;;5034806;28;20120;-64
2023/10/03 04:21:32;;;;;;;5.32;4.47;;;17.90;99.90;;;;;;5037102;28;20040;-64
2023/10/03 04:23:59;;;;;;;4.75;4.28;;;18.00;99.90;;;;;;5057030;28;20041;-64
2023/10/03 04:26:25;;;;;;;4.95;4.45;;;17.90;99.90;;;;;;5056952;28;20040;-64
2023/10/03 04:28:51;;;;;;;6.20;4.72;;;17.90;99.90;;;;;;5057018;28;20060;-64
2023/10/03 04:31:17;;;;;;;4.53;4.13;;;18.10;99.90;;;;;;5056984;28;20056;-64
2023/10/03 04:33:44;;;;;;;5.07;4.25;;;17.90;99.90;;;;;;5056652;28;20053;-64
2023/10/03 04:36:09;;;;;;;5.43;4.93;;;17.90;99.90;;;;;;5056920;28;20048;-64
2023/10/03 04:38:35;;;;;;;4.47;3.97;;;17.90;99.90;;;;;;5038931;28;20044;-65
2023/10/03 04:41:02;;;;;;;4.97;4.47;;;17.80;99.90;;;;;;5056469;28;20037;-65
2023/10/03 04:43:30;;;;;;;4.75;4.07;;;17.90;99.90;;;;;;5056690;28;20397;-65
2023/10/03 04:46:01;;;;;;;5.03;4.47;;;18.00;99.90;;;;;;5038552;28;20049;-66
2023/10/03 04:48:28;;;;;;;4.57;4.18;;;18.00;99.90;;;;;;5038435;28;20041;-66
2023/10/03 04:50:53;;;;;;;4.93;4.43;;;18.10;99.90;;;;;;5038504;28;20045;-68
2023/10/03 04:53:19;;;;;;;4.30;3.90;;;18.00;99.90;;;;;;5056609;28;20546;-69
2023/10/03 04:55:48;;;;;;;6.20;5.05;;;18.00;99.90;;;;;;5038665;28;20484;-67
2023/10/03 04:58:14;;;;;;;4.05;3.63;;;18.10;99.90;;;;;;5056498;28;20045;-66
2023/10/03 05:00:40;;;;;;;4.97;4.50;;;18.10;99.90;;;;;;5056462;28;20412;-66
2023/10/03 05:03:09;;;;;;;5.38;4.18;;;18.10;99.90;;;;;;5056173;28;20044;-67
2023/10/03 05:05:35;;;;;;;4.97;3.90;;;18.10;99.90;;;;;;5056287;28;20116;-68
2023/10/03 05:08:00;;;;;;;4.88;4.32;;;18.20;99.90;;;;;;5056343;28;20044;-70
2023/10/03 05:10:35;;;;;;;4.15;3.72;;;18.20;99.90;;;;;;5056186;28;20393;-68
2023/10/03 05:13:04;;;;;;;4.25;3.85;;;18.20;99.90;;;;;;5056185;28;20083;-68
2023/10/03 05:15:30;;;;;;;4.68;4.05;;;18.20;99.90;;;;;;5055850;28;20052;-68
2023/10/03 05:17:56;;;;;;;4.47;3.72;;;18.30;99.90;;;;;;5056186;28;20033;-68
2023/10/03 05:20:34;;;;;;;4.63;4.13;;;18.30;99.90;;;;;;5056052;28;20040;-68
2023/10/03 05:23:03;;;;;;;4.68;3.38;;;18.30;99.90;;;;;;5056134;28;20408;-70
2023/10/03 05:25:28;;;;;;;3.63;3.22;;;18.30;99.90;;;;;;5037724;28;20056;-74
2023/10/03 05:27:54;;;;;;;5.97;4.03;;;18.30;99.90;;;;;;5037871;28;20501;-68
2023/10/03 05:30:19;;;;;;;4.90;3.85;;;18.30;99.90;;;;;;5055881;28;20500;-69
2023/10/03 05:32:46;;;;;;;4.57;4.07;;;18.40;99.90;;;;;;5036634;28;20550;-69
2023/10/03 05:35:12;;;;;;;4.70;3.75;;;18.40;99.90;;;;;;5055339;28;20163;-69
2023/10/03 05:37:39;;;;;;;4.63;3.72;;;18.40;99.90;;;;;;5037571;28;20424;-69
2023/10/03 05:40:12;;;;;;;4.75;3.85;;;18.40;99.90;;;;;;5055738;28;20066;-69
2023/10/03 05:42:45;;;;;;;4.57;3.72;;;18.40;99.90;;;;;;5037568;28;20443;-68
2023/10/03 05:45:15;;;;;;;4.35;3.95;;;18.70;99.90;;;;;;5055552;28;20040;-68
2023/10/03 05:47:44;;;;;;;5.40;3.90;;;18.50;99.90;;;;;;5037732;28;20057;-67
2023/10/03 05:50:09;;;;;;;4.70;3.40;;;18.50;99.90;;;;;;5055510;28;20032;-69
2023/10/03 05:52:35;;;;;;;4.30;3.90;;;18.50;99.90;;;;;;5055435;28;20511;-69
2023/10/03 05:55:01;;;;;;;4.97;3.55;;;18.50;99.90;;;;;;5037589;28;20120;-69
2023/10/03 05:57:27;;;;;;;4.40;3.63;;;18.60;99.90;;;;;;5055430;28;20044;-69
2023/10/03 05:59:52;;;;;;;4.53;3.58;;;18.60;99.90;;;;;;5037486;28;20174;-69
2023/10/03 06:02:18;;;;;;;4.00;3.40;;;18.60;99.90;;;;;;5055379;28;20067;-66
2023/10/03 06:04:43;;;;;;;3.55;3.25;;;18.60;99.90;;;;;;5055131;28;20037;-66
2023/10/03 06:07:09;;;;;;;4.15;3.60;;;18.60;99.90;;;;;;5055213;28;20040;-66
2023/10/03 06:09:35;;;;;;;4.07;3.60;;;18.60;99.90;;;;;;5036959;28;20041;-66
2023/10/03 06:12:01;;;;;;;3.13;2.53;;;18.70;99.90;;;;;;5055095;28;20037;-66
2023/10/03 06:14:26;;;;;;;7.03;4.25;;;18.50;99.90;;;;;;5055060;28;20485;-66
2023/10/03 06:16:52;;;;;;;3.13;2.55;;;18.70;99.90;;;;;;5055039;28;20068;-68
2023/10/03 06:19:18;;;;;;;5.00;3.15;;;18.70;99.90;;;;;;5037022;28;20044;-69
2023/10/03 06:21:45;;;;;;;3.67;2.50;;;18.80;99.90;;;;;;5036795;28;20044;-66
2023/10/03 06:24:12;;;;;;;4.05;2.97;;;18.80;99.90;;;;;;5054596;28;20423;-66
2023/10/03 06:26:39;;;;;;;2.88;2.05;;;18.80;99.90;;;;;;5054580;28;20116;-66
2023/10/03 06:29:04;;;;;;;3.60;2.30;;;19.10;99.90;;;;;;5054847;28;20045;-66
2023/10/03 06:31:30;;;;;;;3.80;2.53;;;18.70;99.90;;;;;;5054856;28;20094;-68
2023/10/03 06:33:56;;;;;;;3.53;2.70;;;18.70;99.90;;;;;;5054452;28;20535;-68
2023/10/03 06:36:21;;;;;;;2.45;1.88;;;18.70;99.90;;;;;;5036552;28;20037;-67
2023/10/03 06:38:49;;;;;;;3.70;2.38;;;18.70;99.90;;;;;;5036571;28;20146;-67
2023/10/03 06:41:19;;;;;;;4.03;2.63;;;18.70;99.90;;;;;;5019836;28;20072;-69
2023/10/03 06:43:45;;;;;;;2.17;1.95;;;18.70;99.90;;;;;;5053921;28;20056;-66
2023/10/03 06:46:10;;;;;;;2.47;1.73;;;18.70;99.90;;;;;;5036325;28;20044;-66
2023/10/03 06:48:36;;;;;;;3.13;2.22;;;18.70;99.90;;;;;;5036311;28;20511;-66
2023/10/03 06:51:05;;;;;;;3.70;1.83;;;19.00;99.90;;;;;;5054339;28;20465;-66
2023/10/03 06:53:31;;;;;;;2.67;1.65;;;18.60;99.90;;;;;;5054237;28;20040;-65
2023/10/03 06:55:57;;;;;;;2.42;2.10;;;18.70;99.90;;;;;;5053930;28;20045;-66
2023/10/03 06:58:24;;;;;;;2.25;1.58;;;18.70;99.90;;;;;;5036230;28;20055;-66
2023/10/03 07:00:55;;;;;;;2.90;1.23;;;18.70;99.90;;;;;;5036007;28;20036;-67
2023/10/03 07:03:23;;;;;;;2.28;1.90;;;18.70;99.90;;;;;;5019538;28;20048;-66
2023/10/03 07:05:48;;;;;;;2.30;1.65;;;18.60;99.90;;;;;;5054006;28;20049;-66
2023/10/03 07:08:14;;;;;;;1.48;1.35;;;18.60;99.90;;;;;;5053768;28;20132;-66
2023/10/03 07:10:43;;;;;;;2.00;1.60;;;18.60;99.90;;;;;;5053957;28;20044;-66
2023/10/03 07:13:12;;;;;;;1.60;1.15;;;18.60;99.90;;;;;;5054053;28;20049;-67
2023/10/03 07:15:39;;;;;;;2.13;1.30;;;18.60;99.90;;;;;;5053566;28;20110;-67
2023/10/03 07:18:05;;;;;;;2.00;1.25;;;18.60;99.90;;;;;;5053588;28;20041;-67
2023/10/03 07:20:31;;;;;;;1.40;1.10;;;18.70;99.90;;;;;;5035702;28;20048;-67
2023/10/03 07:22:57;;;;;;;2.88;1.15;;;18.70;99.90;;;;;;5036083;28;20484;-66
2023/10/03 07:25:22;;;;;;;2.65;1.90;;;18.80;99.90;;;;;;5053649;28;20128;-66
2023/10/03 07:27:51;;;;;;;1.77;1.13;;;18.70;99.90;;;;;;5053707;28;20036;-66
2023/10/03 07:30:16;;;;;;;1.52;1.20;;;18.60;99.90;;;;;;5053615;28;20400;-66
2023/10/03 07:32:42;;;;;;;2.55;1.45;;;18.60;99.90;;;;;;5035522;28;20120;-68
2023/10/03 07:35:11;;;;;;;2.17;1.20;;;18.50;99.90;;;;;;5035291;28;20094;-68
2023/10/03 07:37:39;;;;;;;2.15;1.55;;;18.80;99.90;;;;;;5053496;28;20045;-67
2023/10/03 07:40:06;;;;;;;1.58;1.20;;;19.00;99.90;;;;;;5035357;28;20049;-67
2023/10/03 07:42:32;;;;;;;1.38;1.13;;;18.50;99.90;;;;;;5035382;28;20045;-66
2023/10/03 07:44:57;;;;;;;1.08;0.98;;;18.50;99.90;;;;;;5053292;28;20068;-66
2023/10/03 07:47:23;;;;;;;1.35;1.02;;;18.50;99.90;;;;;;5053033;28;20396;-66
2023/10/03 07:49:49;;;;;;;3.15;1.25;;;18.40;99.90;;;;;;5053301;28;20048;-66
2023/10/03 07:52:17;;;;;;;1.45;1.25;;;18.30;99.90;;;;;;5053052;28;20528;-66
2023/10/03 07:54:46;;;;;;;1.77;0.93;;;18.30;99.90;;;;;;5053208;28;20502;-66
2023/10/03 07:57:13;;;;;;;1.65;1.05;;;18.30;99.90;;;;;;5052685;28;20094;-66
2023/10/03 07:59:39;;;;;;;1.60;1.27;;;18.30;99.90;;;;;;5052850;28;20083;-66
2023/10/03 08:02:05;;;;;;;1.85;1.27;;;18.60;99.90;;;;;;5053000;28;20069;-66
2023/10/03 08:04:34;;;;;;;2.92;1.85;;;18.20;99.90;;;;;;5052926;28;20095;-66
2023/10/03 08:06:59;;;;;;;1.40;1.30;;;18.80;99.90;;;;;;5052988;28;20107;-66
2023/10/03 08:09:25;;;;;;;2.92;1.80;;;18.10;99.90;;;;;;5052726;28;20481;-66
2023/10/03 08:11:52;;;;;;;1.27;1.00;;;18.10;99.90;;;;;;5052985;28;20079;-66
2023/10/03 08:14:18;;;;;;;3.72;1.83;;;18.00;99.90;;;;;;5034857;28;20045;-66
2023/10/03 08:16:45;;;;;;;1.83;1.38;;;18.30;99.90;;;;;;5052919;28;20051;-66
2023/10/03 08:19:21;;;;;;;1.88;1.40;;;17.80;99.90;;;;;;5052922;28;20120;-66
2023/10/03 08:21:48;;;;;;;1.92;1.13;;;17.70;99.90;;;;;;5052901;28;20083;-66
2023/10/03 08:24:18;;;;;;;1.35;1.00;;;17.70;99.90;;;;;;5034843;28;20072;-66
2023/10/03 08:26:50;;;;;;;2.50;1.38;;;17.60;99.90;;;;;;5035025;28;20124;-66
2023/10/03 08:29:22;;;;;;;1.70;1.40;;;17.60;99.90;;;;;;5052825;28;20635;-66
2023/10/03 08:31:49;;;;;;;2.38;1.52;;;17.50;99.90;;;;;;5052778;28;20094;-66
2023/10/03 08:34:19;;;;;;;1.40;1.10;;;17.50;99.90;;;;;;5052485;28;20562;-65
2023/10/03 08:36:45;;;;;;;1.53;1.20;;;17.80;99.90;;;;;;5052718;28;20119;-66
2023/10/03 08:39:14;;;;;;;1.75;1.38;;;17.50;99.90;;;;;;5052679;28;20029;-66
2023/10/03 08:41:48;;;;;;;2.22;1.33;;;17.50;99.90;;;;;;5034495;28;20045;-66
2023/10/03 08:44:14;;;;;;;1.58;1.35;;;17.50;99.90;;;;;;5052627;28;20528;-66
2023/10/03 08:46:49;;;;;;;1.80;1.30;;;17.50;99.90;;;;;;5052589;28;20435;-66
2023/10/03 08:49:19;;;;;;;1.88;0.98;;;17.40;99.90;;;;;;5052668;28;20472;-66
2023/10/03 08:51:48;;;;;;;1.20;1.10;;;17.30;99.90;;;;;;5052268;28;20033;-66
2023/10/03 08:54:14;;;;;;;1.58;0.93;;;17.20;99.90;;;;;;5052392;28;20047;-66
2023/10/03 08:56:41;;;;;;;1.90;1.02;;;17.10;99.90;;;;;;5052452;28;20048;-65
2023/10/03 08:59:15;;;;;;;1.17;1.00;;;17.00;99.90;;;;;;5052649;28;20037;-65
2023/10/03 09:01:46;;;;;;;1.05;0.80;;;16.90;99.90;;;;;;5034396;28;20424;-66
2023/10/03 09:04:18;;;;;;;;;;;16.90;99.90;;;;;;5052922;28;20041;-67
2023/10/03 09:06:47;;;;;;;1.27;0.68;;;16.90;99.90;;;;;;5053117;28;19921;-67
2023/10/03 09:09:14;;;;;;;1.60;0.90;;;16.90;99.90;;;;;;5056205;28;20037;-67
2023/10/03 09:11:42;;;;;;;2.08;0.90;;;16.90;99.90;;;;;;5056166;28;20444;-67
2023/10/03 09:14:12;;;;;;;1.80;0.60;;;16.90;99.90;;;;;;5021494;28;20056;-67
2023/10/03 09:16:41;;;;;;;1.25;0.80;;;16.90;99.90;;;;;;5055780;28;20041;-67
2023/10/03 09:19:12;;;;;;;1.70;0.93;;;17.00;99.90;;;;;;5056069;28;20048;-67
2023/10/03 09:21:38;;;;;;;0.88;0.60;;;17.00;99.90;;;;;;5055699;28;20045;-67
2023/10/03 09:24:20;;;;;;;0.98;0.50;;;17.10;99.90;;;;;;5055941;28;20052;-67
2023/10/03 09:26:47;;;;;;;1.48;0.80;;;17.10;99.90;;;;;;5037881;28;20442;-67
2023/10/03 09:29:29;;;;;;;1.20;0.70;;;17.30;99.90;;;;;;5055942;28;20397;-67
2023/10/03 09:31:59;;;;;;;1.83;0.80;;;17.20;99.90;;;;;;5055908;28;20041;-67
2023/10/03 09:34:32;;;;;;;1.35;0.68;;;17.20;99.90;;;;;;5055549;28;20386;-67
2023/10/03 09:37:05;;;;;;;1.45;0.70;;;17.00;99.90;;;;;;5037930;28;20056;-67
2023/10/03 09:39:36;;;;;;;1.05;0.60;;;16.70;99.90;;;;;;5037535;28;20086;-67
2023/10/03 09:42:03;;;;;;;1.20;0.43;;;16.50;99.90;;;;;;5055770;28;20523;-66
2023/10/03 09:44:31;;;;;;;0.80;0.47;;;16.40;99.90;;;;;;5055263;28;20124;-67
2023/10/03 09:47:00;;;;;;;0.95;0.45;;;16.20;99.90;;;;;;5055623;28;20064;-67
2023/10/03 09:49:38;;;;;;;0.65;0.43;;;16.00;99.90;;;;;;5037556;28;20102;-66
2023/10/03 09:52:26;;;;;;;0.73;0.40;;;15.90;99.90;;;;;;5055535;28;20489;-66
2023/10/03 09:54:53;;;;;;;0.57;0.38;;;15.70;99.90;;;;;;5055252;28;20182;-66
2023/10/03 09:57:23;;;;;;;0.47;0.47;;;15.50;99.90;;;;;;5037464;28;20045;-67
2023/10/03 09:59:50;;;;;;;0.50;0.50;;;15.50;99.90;;;;;;5020764;28;20037;-67
2023/10/03 10:02:23;;;;;;;0.50;0.38;;;15.50;99.90;;;;;;5037462;28;20302;-67
2023/10/03 10:04:50;;;;;;;0.28;0.28;;;15.50;99.90;;;;;;5055209;28;20474;-66
2023/10/03 10:07:34;;;;;;;0.43;0.30;;;15.40;99.90;;;;;;5054833;28;20037;-66
2023/10/03 10:10:12;;;;;;;0.60;0.60;;;15.40;99.90;;;;;;5055111;28;20494;-66
2023/10/03 10:13:13;;;;;;;0.95;0.65;;;15.40;99.90;;;;;;5037248;28;20106;-66
2023/10/03 10:16:00;;;;;;;0.70;0.50;;;15.30;99.90;;;;;;5036992;28;20056;-67
2023/10/03 10:18:44;;;;;;;0.30;0.30;;;15.40;99.90;;;;;;5036394;28;20052;-67
2023/10/03 10:21:25;;;;;;;1.05;0.50;;;15.30;99.90;;;;;;5055008;28;20033;-67
2023/10/03 10:24:24;;;;;;;0.63;0.30;;;15.40;99.90;;;;;;5036722;28;20068;-67
2023/10/03 10:26:55;;;;;;;1.33;0.52;;;15.40;99.90;;;;;;5054915;28;20067;-67
2023/10/03 10:29:24;;;;;;;1.15;0.50;;;15.40;99.90;;;;;;5020208;28;20114;-67
2023/10/03 10:31:59;;;;;;;0.40;0.40;;;15.40;99.90;;;;;;5054550;28;20033;-67
2023/10/03 10:34:27;;;;;;;0.47;0.47;;;15.40;99.90;;;;;;5054280;28;20053;-67
2023/10/03 10:37:09;;;;;;;0.52;0.52;;;15.80;99.90;;;;;;5054708;28;20048;-69
2023/10/03 10:39:54;;;;;;;0.38;0.38;;;15.40;99.90;;;;;;5054461;28;20483;-68
2023/10/03 10:42:26;;;;;;;1.15;0.80;;;15.40;99.90;;;;;;5054551;28;20120;-68
2023/10/03 10:45:04;;;;;;;0.40;0.40;;;15.60;99.90;;;;;;5054065;28;20076;-67
2023/10/03 10:47:34;;;;;;;0.43;0.43;;;15.50;99.90;;;;;;5053990;28;20080;-67
2023/10/03 10:50:00;;;;;;;0.57;0.43;;;15.50;99.90;;;;;;5054392;28;20127;-68
2023/10/03 10:52:29;;;;;;;0.40;0.40;;;15.50;99.90;;;;;;5054034;28;20033;-67
2023/10/03 10:54:56;;;;;;;0.40;0.40;;;15.50;99.90;;;;;;5054215;28;20044;-66
2023/10/03 10:57:25;;;;;;;0.52;0.32;;;15.50;99.90;;;;;;5036027;28;20075;-67
2023/10/03 10:59:52;;;;;;;0.93;0.65;;;15.60;99.90;;;;;;5036220;28;20037;-66
2023/10/03 11:02:22;;;;;;;0.40;0.40;;;15.70;99.90;;;;;;5035876;28;20055;-66
2023/10/03 11:04:58;;;;;;;1.15;0.65;;;15.70;99.90;;;;;;5053947;28;20162;-66
2023/10/03 11:07:26;;;;;;;0.88;0.50;;;15.80;99.90;;;;;;5053923;28;20496;-66
2023/10/03 11:09:54;;;;;;;0.43;0.30;;;15.80;99.90;;;;;;5036116;28;20051;-67
2023/10/03 11:12:23;;;;;;;1.30;0.75;;;15.90;99.90;;;;;;5053927;28;20041;-67
2023/10/03 11:14:49;;;;;;;0.98;0.55;;;15.90;99.90;;;;;;5053858;28;20049;-65
2023/10/03 11:17:15;;;;;;;1.40;0.80;;;16.10;99.90;;;;;;5053922;28;20116;-65
2023/10/03 11:19:41;;;;;;;0.60;0.60;;;16.00;99.90;;;;;;5053868;28;20036;-65
2023/10/03 11:22:08;;;;;;;0.45;0.30;;;16.00;99.90;;;;;;5053864;28;20041;-65
2023/10/03 11:24:38;;;;;;;0.70;0.70;;;15.90;99.90;;;;;;5053875;28;20045;-67
2023/10/03 11:27:03;;;;;;;0.47;0.47;;;15.80;99.90;;;;;;5035532;28;20041;-67
2023/10/03 11:29:43;;;;;;;0.70;0.65;;;15.70;99.90;;;;;;5053671;28;20083;-67
2023/10/03 11:32:30;;;;;;;0.77;0.45;;;15.60;99.90;;;;;;5053008;28;20033;-67
2023/10/03 11:34:57;;;;;;;0.30;0.30;;;15.50;99.90;;;;;;5035414;28;20074;-67
2023/10/03 11:37:34;;;;;;;0.73;0.73;;;15.40;99.90;;;;;;5053535;28;20401;-67
2023/10/03 11:40:18;;;;;;;0.30;0.30;;;15.30;99.90;;;;;;5053519;28;20037;-67
2023/10/03 11:43:02;;;;;;;0.88;0.63;;;15.30;99.90;;;;;;5035349;28;20048;-67
2023/10/03 11:45:33;;;;;;;0.65;0.50;;;15.30;99.90;;;;;;5053396;28;20041;-67
2023/10/03 11:48:00;;;;;;;1.13;0.60;;;15.20;99.90;;;;;;5053414;28;20130;-67
2023/10/03 11:50:26;;;;;;;0.75;0.65;;;15.20;99.90;;;;;;5053359;28;20041;-67
2023/10/03 11:52:59;;;;;;;0.68;0.57;;;15.20;99.90;;;;;;5052976;28;20393;-67
2023/10/03 11:55:31;;;;;;;0.40;0.40;;;15.10;99.90;;;;;;5035215;28;20045;-67
2023/10/03 11:57:57;;;;;;;0.82;0.60;;;15.10;99.90;;;;;;5035123;28;20049;-67
2023/10/03 12:00:24;;;;;;;1.67;0.80;;;15.00;99.90;;;;;;5052950;28;20499;-67
2023/10/03 12:02:52;;;;;;;1.10;0.52;;;15.10;99.90;;;;;;5052834;28;20047;-67
2023/10/03 12:05:17;;;;;;;0.65;0.50;;;15.10;99.90;;;;;;5052864;28;20099;-67
2023/10/03 12:07:46;;;;;;;1.27;0.63;;;15.10;99.90;;;;;;5053133;28;20036;-67
2023/10/03 12:10:16;;;;;;;1.40;1.00;;;15.20;99.90;;;;;;5053085;28;20400;-67
2023/10/03 12:12:42;;;;;;;1.10;0.70;;;15.30;99.90;;;;;;5034890;28;20051;-68
2023/10/03 12:15:12;;;;;;;0.50;0.50;;;15.60;99.90;;;;;;5034877;28;20041;-67
2023/10/03 12:17:40;;;;;;;1.50;1.13;;;15.20;99.90;;;;;;5053016;28;20044;-67
2023/10/03 12:20:11;;;;;;;0.98;0.90;;;15.10;99.90;;;;;;5052774;28;20045;-67
2023/10/03 12:22:41;;;;;;;1.13;0.90;;;15.10;99.90;;;;;;5053037;28;20036;-67
2023/10/03 12:25:09;;;;;;;1.20;0.90;;;15.10;99.90;;;;;;5052874;28;20070;-65
2023/10/03 12:27:35;;;;;;;0.88;0.80;;;15.00;99.90;;;;;;5052877;28;20447;-66
2023/10/03 12:30:04;;;;;;;0.70;0.70;;;14.90;99.90;;;;;;5052620;28;20111;-65
2023/10/03 12:32:34;;;;;;;1.00;0.80;;;14.80;99.90;;;;;;5034995;28;20051;-66
2023/10/03 12:35:00;;;;;;;1.30;0.85;;;14.80;99.90;;;;;;5052581;28;20104;-65
2023/10/03 12:37:26;;;;;;;1.30;0.93;;;14.70;99.90;;;;;;5052822;28;20088;-65
2023/10/03 12:39:51;;;;;;;1.27;0.82;;;14.50;99.90;;;;;;5052738;28;20567;-65
2023/10/03 12:42:17;;;;;;;0.88;0.85;;;14.50;99.90;;;;;;5054169;28;20392;-65
2023/10/03 12:44:43;;;;;;;0.82;0.65;;;14.40;99.90;;;;;;5056695;28;20095;-65
2023/10/03 12:47:08;;;;;;;0.77;0.70;;;14.40;99.90;;;;;;5056450;28;20037;-65
2023/10/03 12:49:34;;;;;;;0.80;0.80;;;14.30;99.90;;;;;;5056473;28;20044;-66
2023/10/03 12:52:00;;;;;;;0.90;0.80;;;14.30;99.90;;;;;;5056476;28;20124;-65
2023/10/03 12:54:27;;;;;;;0.70;0.70;;;14.30;99.90;;;;;;5056557;28;20048;-65
2023/10/03 12:56:52;;;;;;;1.83;1.15;;;14.30;99.90;;;;;;5056352;28;20044;-65
2023/10/03 12:59:18;;;;;;;1.35;0.85;;;14.30;99.90;;;;;;5056269;28;20060;-65